Time;durP1;ratioP1;P1;durP2;ratioP2;P2;SDS_P1;SDS_P2;PMS_P1;PMS_P2;Temp;Humidity;BMP_temperature;BMP_pressure;BME280_temperature;BME280_humidity;BME280_pressure;Samples;Min_cycle;Max_cycle;Signal;HPM_P1;HPM_P2
2024/01/29 00:00:19;;;;;;;10.70;9.70;;;;;;;-0.10;100.00;101616.47;4927740;29;20789;-75
2024/01/29 00:02:45;;;;;;;11.00;9.90;;;;;;;-0.10;100.00;101611.38;4921871;29;20221;-76
2024/01/29 00:05:10;;;;;;;10.10;9.00;;;;;;;-0.10;100.00;101614.81;4925664;29;20247;-76
2024/01/29 00:07:36;;;;;;;10.20;9.30;;;;;;;-0.10;100.00;101614.81;4928827;29;20204;-75
2024/01/29 00:10:01;;;;;;;10.50;9.50;;;;;;;-0.10;100.00;101617.38;4928669;29;20218;-75
2024/01/29 00:12:26;;;;;;;10.77;9.77;;;;;;;-0.11;100.00;101617.25;4928271;29;20265;-75
2024/01/29 00:14:52;;;;;;;9.73;8.80;;;;;;;-0.11;100.00;101620.69;4927627;29;20276;-76
2024/01/29 00:17:17;;;;;;;9.10;8.20;;;;;;;-0.12;100.00;101621.50;4905519;29;20676;-76
2024/01/29 00:19:43;;;;;;;10.50;8.90;;;;;;;-0.12;100.00;101618.06;4928760;29;20221;-76
2024/01/29 00:22:08;;;;;;;9.17;8.10;;;;;;;-0.11;100.00;101613.06;4928557;29;20189;-75
2024/01/29 00:24:33;;;;;;;10.63;9.60;;;;;;;-0.13;100.00;101612.09;4927804;29;20205;-75
2024/01/29 00:26:59;;;;;;;11.00;9.30;;;;;;;-0.11;100.00;101612.16;4930365;29;20195;-74
2024/01/29 00:29:24;;;;;;;9.90;8.90;;;;;;;-0.11;100.00;101612.16;4927395;29;20269;-76
2024/01/29 00:31:49;;;;;;;9.23;8.33;;;;;;;-0.11;100.00;101610.53;4924978;29;20189;-75
2024/01/29 00:34:15;;;;;;;10.60;9.50;;;;;;;-0.08;100.00;101615.78;4927537;29;21437;-75
2024/01/29 00:36:40;;;;;;;10.90;9.80;;;;;;;-0.09;100.00;101608.06;4914603;29;20259;-76
2024/01/29 00:39:06;;;;;;;9.97;8.97;;;;;;;-0.11;100.00;101610.53;4926548;29;20228;-75
2024/01/29 00:41:33;;;;;;;10.13;9.13;;;;;;;-0.12;100.00;101602.78;4926040;29;20201;-75
2024/01/29 00:43:58;;;;;;;11.20;9.87;;;;;;;-0.11;100.00;101604.53;4915502;29;20757;-74
2024/01/29 00:46:23;;;;;;;9.03;8.03;;;;;;;-0.15;100.00;101603.50;4928577;29;20258;-75
2024/01/29 00:48:48;;;;;;;9.93;8.93;;;;;;;-0.15;100.00;101613.69;4930250;29;20221;-75
2024/01/29 00:51:14;;;;;;;10.57;9.47;;;;;;;-0.18;100.00;101616.94;4919694;29;20255;-75
2024/01/29 00:53:40;;;;;;;9.43;8.43;;;;;;;-0.21;100.00;101621.84;4932758;29;20233;-76
2024/01/29 00:56:07;;;;;;;10.27;9.27;;;;;;;-0.23;100.00;101617.47;4924185;29;20546;-76
2024/01/29 00:58:32;;;;;;;11.10;8.93;;;;;;;-0.23;100.00;101622.56;4928934;29;20211;-77
2024/01/29 01:00:57;;;;;;;9.07;8.07;;;;;;;-0.23;100.00;101625.09;4923882;29;20189;-75
2024/01/29 01:03:23;;;;;;;8.67;7.77;;;;;;;-0.25;100.00;101617.38;4905332;29;20220;-75
2024/01/29 01:05:48;;;;;;;8.97;8.10;;;;;;;-0.23;100.00;101614.94;4911567;29;20684;-76
2024/01/29 01:08:14;;;;;;;11.67;10.00;;;;;;;-0.24;100.00;101624.22;4927331;29;20247;-75
2024/01/29 01:10:39;;;;;;;11.33;10.17;;;;;;;-0.24;100.00;101628.44;4927937;29;20357;-76
2024/01/29 01:13:04;;;;;;;11.53;10.23;;;;;;;-0.27;100.00;101628.25;4927882;29;20256;-75
2024/01/29 01:15:29;;;;;;;10.60;9.50;;;;;;;-0.29;100.00;101628.16;4923956;29;20975;-75
2024/01/29 01:17:56;;;;;;;10.30;9.30;;;;;;;-0.35;100.00;101620.19;4928282;29;20202;-75
2024/01/29 01:20:22;;;;;;;11.17;9.70;;;;;;;-0.38;100.00;101618.31;4925266;29;20221;-75
2024/01/29 01:22:47;;;;;;;9.90;8.90;;;;;;;-0.38;100.00;101620.88;4922669;29;20207;-75
2024/01/29 01:25:13;;;;;;;9.53;8.53;;;;;;;-0.39;100.00;101626.78;4923461;29;20661;-75
2024/01/29 01:27:38;;;;;;;9.13;8.23;;;;;;;-0.38;100.00;101622.53;4927610;29;20273;-75
2024/01/29 01:30:05;;;;;;;9.80;8.80;;;;;;;-0.39;100.00;101620.78;4924591;29;20229;-75
2024/01/29 01:32:31;;;;;;;9.07;8.20;;;;;;;-0.39;100.00;101624.22;4926382;29;20236;-75
2024/01/29 01:34:56;;;;;;;8.77;7.83;;;;;;;-0.39;100.00;101625.88;4925855;29;20201;-75
2024/01/29 01:37:22;;;;;;;9.63;8.70;;;;;;;-0.41;100.00;101625.81;4925335;29;20206;-75
2024/01/29 01:39:52;;;;;;;9.67;8.70;;;;;;;-0.41;100.00;101623.25;4924010;29;20221;-76
2024/01/29 01:42:18;;;;;;;9.63;8.60;;;;;;;-0.40;100.00;101627.56;4924412;29;20198;-75
2024/01/29 01:44:45;;;;;;;9.53;8.57;;;;;;;-0.37;100.00;101619.22;4909752;29;20199;-75
2024/01/29 01:47:11;;;;;;;9.33;8.43;;;;;;;-0.36;100.00;101615.88;4926220;29;20202;-75
2024/01/29 01:49:37;;;;;;;10.03;9.00;;;;;;;-0.37;100.00;101617.53;4926660;29;20261;-75
2024/01/29 01:52:03;;;;;;;9.50;8.50;;;;;;;-0.40;100.00;101621.59;4922879;29;20189;-77
2024/01/29 01:54:29;;;;;;;9.50;8.53;;;;;;;-0.41;100.00;101619.81;4926867;29;20195;-75
2024/01/29 01:56:56;;;;;;;10.20;8.23;;;;;;;-0.43;100.00;101621.41;4926749;29;20179;-75
2024/01/29 01:59:21;;;;;;;11.33;8.77;;;;;;;-0.46;100.00;101619.56;4925106;29;20224;-75
2024/01/29 02:01:47;;;;;;;9.47;8.53;;;;;;;-0.49;100.00;101630.44;4925979;29;20201;-75
2024/01/29 02:04:12;;;;;;;10.23;8.73;;;;;;;-0.51;100.00;101623.50;4924001;29;20759;-74
2024/01/29 02:06:37;;;;;;;9.50;8.57;;;;;;;-0.51;100.00;101618.41;4927090;29;20276;-77
2024/01/29 02:09:03;;;;;;;8.97;8.17;;;;;;;-0.51;100.00;101624.41;4924407;29;20217;-75
2024/01/29 02:11:28;;;;;;;9.30;8.40;;;;;;;-0.52;100.00;101619.19;4926958;29;20275;-75
2024/01/29 02:13:54;;;;;;;8.73;7.83;;;;;;;-0.51;100.00;101615.88;4924682;29;20200;-76
2024/01/29 02:16:19;;;;;;;9.07;8.17;;;;;;;-0.51;100.00;101621.84;4911340;29;20195;-75
2024/01/29 02:18:44;;;;;;;8.97;7.93;;;;;;;-0.52;100.00;101621.75;4928480;29;20228;-75
2024/01/29 02:21:10;;;;;;;9.70;8.70;;;;;;;-0.54;100.00;101618.25;4925012;29;20939;-77
2024/01/29 02:23:35;;;;;;;9.77;7.93;;;;;;;-0.53;100.00;101623.41;4926333;29;20219;-75
2024/01/29 02:26:01;;;;;;;9.07;8.17;;;;;;;-0.54;100.00;101616.59;4920354;29;21136;-77
2024/01/29 02:28:27;;;;;;;9.40;8.50;;;;;;;-0.55;100.00;101613.97;4925878;29;20210;-74
2024/01/29 02:30:53;;;;;;;9.13;8.20;;;;;;;-0.55;100.00;101614.81;4923837;29;20280;-75
2024/01/29 02:33:19;;;;;;;9.83;8.83;;;;;;;-0.50;100.00;101610.88;4924080;29;20204;-75
2024/01/29 02:35:48;;;;;;;11.43;10.10;;;;;;;-0.50;100.00;101617.63;4925015;29;20204;-75
2024/01/29 02:38:13;;;;;;;10.17;9.27;;;;;;;-0.50;100.00;101618.53;4926591;29;20185;-75
2024/01/29 02:40:38;;;;;;;9.53;8.20;;;;;;;-0.53;100.00;101620.03;4912319;29;20539;-75
2024/01/29 02:43:03;;;;;;;8.80;8.00;;;;;;;-0.54;100.00;101621.66;4925222;29;20220;-75
2024/01/29 02:45:29;;;;;;;8.90;8.00;;;;;;;-0.56;100.00;101627.47;4922623;29;20669;-75
2024/01/29 02:47:54;;;;;;;8.63;7.83;;;;;;;-0.59;100.00;101625.59;4926218;29;20196;-75
2024/01/29 02:50:20;;;;;;;9.93;8.93;;;;;;;-0.62;100.00;101622.91;4923188;29;20219;-75
2024/01/29 02:52:45;;;;;;;9.03;8.10;;;;;;;-0.65;100.00;101626.13;4909536;29;20229;-75
2024/01/29 02:55:11;;;;;;;8.40;7.60;;;;;;;-0.66;100.00;101629.44;4927454;29;20699;-75
2024/01/29 02:57:36;;;;;;;8.20;7.40;;;;;;;-0.63;100.00;101626.22;4929545;29;20286;-75
2024/01/29 03:00:01;;;;;;;8.23;7.27;;;;;;;-0.65;100.00;101625.25;4929900;29;20210;-75
2024/01/29 03:02:27;;;;;;;9.03;7.50;;;;;;;-0.66;100.00;101616.75;4925491;29;20205;-77
2024/01/29 03:04:52;;;;;;;8.63;7.73;;;;;;;-0.65;100.00;101618.50;4930473;29;20222;-75
2024/01/29 03:07:17;;;;;;;8.77;7.73;;;;;;;-0.60;100.00;101622.97;4925322;29;20202;-77
2024/01/29 03:09:42;;;;;;;9.23;7.60;;;;;;;-0.60;100.00;101618.75;4930184;29;20213;-77
2024/01/29 03:12:08;;;;;;;9.30;8.40;;;;;;;-0.57;100.00;101616.41;4930715;29;20225;-77
2024/01/29 03:14:34;;;;;;;8.73;7.87;;;;;;;-0.56;100.00;101624.91;4930329;29;20184;-75
2024/01/29 03:16:59;;;;;;;8.73;7.83;;;;;;;-0.58;100.00;101624.81;4931321;29;20197;-77
2024/01/29 03:19:24;;;;;;;8.57;7.77;;;;;;;-0.60;100.00;101623.84;4930363;29;20224;-77
2024/01/29 03:21:50;;;;;;;8.47;7.40;;;;;;;-0.60;100.00;101623.84;4930550;29;20197;-75
2024/01/29 03:24:15;;;;;;;8.20;7.40;;;;;;;-0.59;100.00;101622.19;4925892;29;20264;-75
2024/01/29 03:26:40;;;;;;;7.83;7.10;;;;;;;-0.60;100.00;101620.44;4930330;29;20192;-75
2024/01/29 03:29:06;;;;;;;7.80;7.00;;;;;;;-0.58;100.00;101616.31;4929286;29;20248;-75
2024/01/29 03:31:31;;;;;;;8.07;7.27;;;;;;;-0.57;100.00;101623.16;4930808;29;20673;-75
2024/01/29 03:33:56;;;;;;;7.90;7.07;;;;;;;-0.57;100.00;101623.16;4922953;29;20683;-77
2024/01/29 03:36:22;;;;;;;7.60;6.87;;;;;;;-0.57;100.00;101615.53;4927530;29;20849;-77
2024/01/29 03:38:48;;;;;;;7.53;6.80;;;;;;;-0.58;100.00;101618.88;4928443;29;20209;-75
2024/01/29 03:41:13;;;;;;;7.20;6.50;;;;;;;-0.58;100.00;101617.19;4930123;29;20188;-75
2024/01/29 03:43:38;;;;;;;7.53;6.53;;;;;;;-0.59;100.00;101619.66;4931362;29;20229;-77
2024/01/29 03:46:04;;;;;;;6.60;6.00;;;;;;;-0.59;100.00;101614.56;4930419;29;20893;-75
2024/01/29 03:48:30;;;;;;;5.90;5.30;;;;;;;-0.59;100.00;101609.47;4930334;29;20591;-77
2024/01/29 03:50:55;;;;;;;6.43;5.70;;;;;;;-0.58;100.00;101613.78;4925700;29;20192;-75
2024/01/29 03:53:20;;;;;;;7.40;6.23;;;;;;;-0.56;100.00;101617.28;4927853;29;20193;-75
2024/01/29 03:55:47;;;;;;;6.40;5.80;;;;;;;-0.56;100.00;101618.16;4928711;29;20546;-77
2024/01/29 03:58:12;;;;;;;6.10;5.50;;;;;;;-0.53;100.00;101618.34;4929043;29;20283;-74
2024/01/29 04:00:38;;;;;;;6.30;5.70;;;;;;;-0.52;100.00;101624.28;4930164;29;20299;-77
2024/01/29 04:03:04;;;;;;;5.90;5.30;;;;;;;-0.55;100.00;101614.81;4932367;29;20221;-75
2024/01/29 04:05:29;;;;;;;6.30;5.67;;;;;;;-0.56;100.00;101615.59;4927817;29;20203;-74
2024/01/29 04:07:55;;;;;;;6.13;5.60;;;;;;;-0.53;100.00;101614.94;4940641;29;20210;-75
2024/01/29 04:10:20;;;;;;;6.53;5.30;;;;;;;-0.52;100.00;101614.13;4925368;29;20304;-75
2024/01/29 04:12:46;;;;;;;7.20;5.87;;;;;;;-0.52;100.00;101612.47;4929852;29;20197;-76
2024/01/29 04:15:12;;;;;;;6.43;5.83;;;;;;;-0.57;100.00;101616.41;4926701;29;20206;-74
2024/01/29 04:17:37;;;;;;;5.90;5.30;;;;;;;-0.61;100.00;101617.03;4927894;29;20192;-74
2024/01/29 04:20:04;;;;;;;6.77;5.90;;;;;;;-0.63;100.00;101619.47;4922865;29;20213;-75
2024/01/29 04:22:29;;;;;;;6.93;6.00;;;;;;;-0.59;100.00;101614.56;4923774;29;20198;-75
2024/01/29 04:24:54;;;;;;;6.80;6.10;;;;;;;-0.57;100.00;101605.38;4924098;29;20202;-75
2024/01/29 04:27:20;;;;;;;6.30;5.57;;;;;;;-0.58;100.00;101608.69;4919932;29;20193;-75
2024/01/29 04:29:45;;;;;;;6.27;5.67;;;;;;;-0.63;100.00;101606.75;4926932;29;20329;-75
2024/01/29 04:32:10;;;;;;;6.43;5.63;;;;;;;-0.62;100.00;101603.41;4925975;29;20197;-75
2024/01/29 04:34:36;;;;;;;5.97;5.40;;;;;;;-0.60;100.00;101602.63;4928683;29;20564;-76
2024/01/29 04:37:01;;;;;;;6.17;5.57;;;;;;;-0.58;100.00;101606.16;4919979;29;20286;-75
2024/01/29 04:39:26;;;;;;;6.03;5.43;;;;;;;-0.57;100.00;101602.81;4925675;29;20230;-75
2024/01/29 04:41:52;;;;;;;6.03;5.40;;;;;;;-0.58;100.00;101609.56;4926921;29;20207;-75
2024/01/29 04:44:18;;;;;;;6.30;5.70;;;;;;;-0.58;100.00;101614.63;4925645;29;20219;-74
2024/01/29 04:46:43;;;;;;;7.43;6.73;;;;;;;-0.55;100.00;101608.88;4926971;29;20203;-74
2024/01/29 04:49:08;;;;;;;7.20;6.50;;;;;;;-0.55;100.00;101604.66;4926922;29;20213;-75
2024/01/29 04:51:34;;;;;;;7.93;7.13;;;;;;;-0.57;100.00;101605.38;4923130;29;20369;-76
2024/01/29 04:53:59;;;;;;;8.13;7.33;;;;;;;-0.62;100.00;101613.59;4926308;29;20586;-75
2024/01/29 04:56:25;;;;;;;9.23;7.63;;;;;;;-0.65;100.00;101610.00;4926835;29;20193;-75
2024/01/29 04:58:50;;;;;;;8.77;7.87;;;;;;;-0.67;100.00;101607.34;4927215;29;20222;-74
2024/01/29 05:01:16;;;;;;;8.70;7.70;;;;;;;-0.67;100.00;101611.56;4906717;29;20207;-75
2024/01/29 05:03:42;;;;;;;7.27;6.57;;;;;;;-0.69;100.00;101619.13;4925394;29;22012;-76
2024/01/29 05:06:07;;;;;;;9.03;8.20;;;;;;;-0.77;100.00;101616.13;4927661;29;20195;-75
2024/01/29 05:08:32;;;;;;;8.27;7.47;;;;;;;-0.79;100.00;101617.72;4927371;29;20190;-75
2024/01/29 05:10:58;;;;;;;7.97;7.23;;;;;;;-0.77;100.00;101625.41;4924313;29;20635;-76
2024/01/29 05:13:23;;;;;;;7.70;6.90;;;;;;;-0.77;100.00;101633.94;4926799;29;20202;-75
2024/01/29 05:15:48;;;;;;;8.40;7.13;;;;;;;-0.71;100.00;101627.44;4911607;29;20190;-75
2024/01/29 05:18:14;;;;;;;7.90;6.90;;;;;;;-0.70;100.00;101629.19;4927457;29;20201;-75
2024/01/29 05:20:39;;;;;;;8.80;7.63;;;;;;;-0.71;100.00;101619.81;4926994;29;20333;-76
2024/01/29 05:23:04;;;;;;;7.07;6.47;;;;;;;-0.74;100.00;101630.69;4924301;29;20301;-75
2024/01/29 05:25:32;;;;;;;6.90;6.30;;;;;;;-0.79;100.00;101624.44;4926983;29;20200;-75
2024/01/29 05:27:57;;;;;;;7.20;6.50;;;;;;;-0.82;100.00;101627.69;4928745;29;20193;-75
2024/01/29 05:30:23;;;;;;;7.40;6.70;;;;;;;-0.82;100.00;101630.22;4910251;29;20292;-76
2024/01/29 05:32:49;;;;;;;7.27;6.33;;;;;;;-0.83;100.00;101625.94;4926019;29;20237;-76
2024/01/29 05:35:14;;;;;;;8.13;6.50;;;;;;;-0.81;100.00;101633.63;4927793;29;20663;-75
2024/01/29 05:37:39;;;;;;;7.80;6.40;;;;;;;-0.81;100.00;101638.72;4926306;29;20204;-75
2024/01/29 05:40:05;;;;;;;7.63;6.63;;;;;;;-0.81;100.00;101633.63;4925315;29;20208;-76
2024/01/29 05:42:31;;;;;;;7.40;6.67;;;;;;;-0.82;100.00;101631.88;4925557;29;20858;-76
2024/01/29 05:44:56;;;;;;;9.43;6.87;;;;;;;-0.82;100.00;101634.41;4924131;29;20202;-76
2024/01/29 05:47:23;;;;;;;6.70;6.10;;;;;;;-0.86;100.00;101630.81;4926719;29;20212;-76
2024/01/29 05:49:48;;;;;;;8.70;6.77;;;;;;;-0.89;100.00;101640.81;4925474;29;20220;-76
2024/01/29 05:52:13;;;;;;;7.73;6.90;;;;;;;-0.92;100.00;101644.03;4923277;29;20208;-76
2024/01/29 05:54:39;;;;;;;7.50;6.17;;;;;;;-0.93;100.00;101641.44;4925650;29;20532;-76
2024/01/29 05:57:04;;;;;;;6.87;6.10;;;;;;;-0.95;100.00;101636.22;4910419;29;21071;-76
2024/01/29 05:59:30;;;;;;;6.93;6.07;;;;;;;-0.96;100.00;101634.47;4927082;29;20984;-75
2024/01/29 06:01:55;;;;;;;7.10;6.40;;;;;;;-0.96;100.00;101641.25;4926212;29;21106;-76
2024/01/29 06:04:20;;;;;;;8.03;6.40;;;;;;;-0.95;100.00;101637.91;4926454;29;20279;-76
2024/01/29 06:06:46;;;;;;;7.87;6.07;;;;;;;-0.96;100.00;101639.56;4925315;29;20211;-76
2024/01/29 06:09:11;;;;;;;7.20;6.47;;;;;;;-0.95;100.00;101637.91;4926713;29;20251;-76
2024/01/29 06:11:37;;;;;;;7.17;5.67;;;;;;;-0.93;100.00;101636.34;4924656;29;20651;-76
2024/01/29 06:14:02;;;;;;;7.07;6.23;;;;;;;-0.92;100.00;101640.66;4927607;29;20253;-76
2024/01/29 06:16:29;;;;;;;7.50;6.10;;;;;;;-0.92;100.00;101638.97;4926051;29;20220;-76
2024/01/29 06:18:55;;;;;;;7.50;6.30;;;;;;;-0.92;100.00;101644.03;4924702;29;20688;-75
2024/01/29 06:21:21;;;;;;;6.57;5.83;;;;;;;-0.92;100.00;101638.97;4924648;29;20208;-75
2024/01/29 06:23:47;;;;;;;7.70;6.07;;;;;;;-0.91;100.00;101637.31;4925478;29;20222;-75
2024/01/29 06:26:12;;;;;;;8.13;6.37;;;;;;;-0.90;100.00;101638.19;4926874;29;20656;-77
2024/01/29 06:28:38;;;;;;;8.23;6.10;;;;;;;-0.89;100.00;101640.81;4927967;29;20199;-75
2024/01/29 06:31:04;;;;;;;6.20;5.60;;;;;;;-0.89;100.00;101642.47;4923996;29;20201;-75
2024/01/29 06:33:29;;;;;;;7.60;5.50;;;;;;;-0.88;100.00;101647.66;4924482;29;20280;-76
2024/01/29 06:35:59;;;;;;;6.00;5.23;;;;;;;-0.85;100.00;101649.50;4924510;29;20197;-75
2024/01/29 06:38:24;;;;;;;6.77;5.37;;;;;;;-0.86;100.00;101655.38;4921029;29;20755;-76
2024/01/29 06:40:50;;;;;;;6.23;5.27;;;;;;;-0.84;100.00;101654.69;4926718;29;20204;-75
2024/01/29 06:43:15;;;;;;;5.37;4.87;;;;;;;-0.82;100.00;101653.09;4922688;29;20311;-76
2024/01/29 06:45:40;;;;;;;5.10;4.60;;;;;;;-0.79;100.00;101657.47;4925983;29;20933;-75
2024/01/29 06:48:08;;;;;;;6.10;4.70;;;;;;;-0.76;100.00;101657.66;4925329;29;20201;-76
2024/01/29 06:50:33;;;;;;;6.13;5.10;;;;;;;-0.74;100.00;101660.28;4926807;29;20684;-76
2024/01/29 06:52:59;;;;;;;4.77;4.33;;;;;;;-0.75;100.00;101654.34;4926781;29;20195;-75
2024/01/29 06:55:24;;;;;;;5.40;4.90;;;;;;;-0.77;100.00;101666.97;4922858;29;20703;-76
2024/01/29 06:57:49;;;;;;;7.43;5.30;;;;;;;-0.80;100.00;101669.31;4923428;29;20222;-75
2024/01/29 07:00:15;;;;;;;6.90;5.90;;;;;;;-0.79;100.00;101675.28;4925081;29;20210;-75
2024/01/29 07:02:40;;;;;;;6.63;6.03;;;;;;;-0.80;100.00;101684.59;4906574;29;20532;-75
2024/01/29 07:05:06;;;;;;;6.33;5.70;;;;;;;-0.80;100.00;101679.50;4926531;29;20194;-75
2024/01/29 07:07:31;;;;;;;6.23;5.60;;;;;;;-0.79;100.00;101681.25;4925911;29;20248;-74
2024/01/29 07:09:56;;;;;;;6.37;5.70;;;;;;;-0.78;100.00;101684.66;4923587;29;20588;-75
2024/01/29 07:12:22;;;;;;;6.03;5.43;;;;;;;-0.75;100.00;101689.94;4928414;29;20205;-74
2024/01/29 07:14:49;;;;;;;5.90;4.80;;;;;;;-0.70;100.00;101687.66;4922799;29;20270;-75
2024/01/29 07:17:14;;;;;;;6.50;5.80;;;;;;;-0.62;100.00;101704.28;4928041;29;20278;-75
2024/01/29 07:19:39;;;;;;;6.53;5.53;;;;;;;-0.57;100.00;101702.84;4945691;29;20211;-75
2024/01/29 07:22:05;;;;;;;5.93;5.33;;;;;;;-0.52;100.00;101701.47;4934209;29;20221;-75
2024/01/29 07:24:33;;;;;;;7.87;5.53;;;;;;;-0.48;100.00;101693.25;4920736;29;20250;-74
2024/01/29 07:26:59;;;;;;;7.50;5.60;;;;;;;-0.41;100.00;101697.03;4924903;29;20183;-75
2024/01/29 07:29:26;;;;;;;8.17;5.80;;;;;;;-0.37;100.00;101698.94;4924083;29;20239;-75
2024/01/29 07:31:53;;;;;;;5.90;5.00;;;;;;;-0.29;100.00;101693.44;4905210;29;20202;-75
2024/01/29 07:34:18;;;;;;;5.70;5.10;;;;;;;-0.23;100.00;101693.81;4922628;29;20277;-75
2024/01/29 07:36:43;;;;;;;7.90;6.67;;;;;;;-0.18;100.00;101706.00;4927100;29;20269;-75
2024/01/29 07:39:12;;;;;;;7.97;7.17;;;;;;;-0.12;100.00;101704.56;4922407;29;21008;-75
2024/01/29 07:41:37;;;;;;;8.70;7.90;;;;;;;-0.06;100.00;101713.44;4923923;29;20205;-75
2024/01/29 07:44:03;;;;;;;7.93;7.13;;;;;;;0.01;100.00;101704.47;4930604;29;20217;-75
2024/01/29 07:46:28;;;;;;;7.93;7.23;;;;;;;0.08;100.00;101709.16;4928379;29;20190;-74
2024/01/29 07:48:54;;;;;;;6.77;6.07;;;;;;;0.14;100.00;101712.06;4932186;29;20701;-74
2024/01/29 07:51:19;;;;;;;8.23;6.43;;;;;;;0.20;100.00;101718.25;4930864;29;20276;-75
2024/01/29 07:53:44;;;;;;;6.63;6.03;;;;;;;0.21;100.00;101713.28;4912973;29;20193;-75
2024/01/29 07:56:10;;;;;;;6.83;6.10;;;;;;;0.25;100.00;101716.84;4930443;29;20198;-75
2024/01/29 07:58:35;;;;;;;8.27;7.10;;;;;;;0.30;100.00;101715.47;4931276;29;20197;-75
2024/01/29 08:01:01;;;;;;;7.13;6.43;;;;;;;0.39;100.00;101712.53;4913734;29;20237;-75
2024/01/29 08:03:26;;;;;;;7.30;6.50;;;;;;;0.50;100.00;101714.00;4929692;29;20215;-74
2024/01/29 08:05:52;;;;;;;7.00;6.30;;;;;;;0.65;100.00;101728.38;4904361;29;20639;-75
2024/01/29 08:08:17;;;;;;;7.03;6.30;;;;;;;0.79;100.00;101722.38;4928831;29;20254;-75
2024/01/29 08:10:42;;;;;;;8.60;7.17;;;;;;;0.89;100.00;101714.41;4927106;29;20206;-75
2024/01/29 08:13:08;;;;;;;9.57;8.23;;;;;;;1.02;100.00;101717.59;4929758;29;20187;-75
2024/01/29 08:15:33;;;;;;;10.97;9.07;;;;;;;1.10;100.00;101711.25;4929690;29;20183;-75
2024/01/29 08:17:58;;;;;;;10.97;9.87;;;;;;;1.17;100.00;101720.09;4927316;29;20243;-75
2024/01/29 08:20:24;;;;;;;11.30;10.20;;;;;;;1.27;100.00;101718.94;4928517;29;20314;-75
2024/01/29 08:22:50;;;;;;;11.87;10.67;;;;;;;1.38;100.00;101722.91;4928271;29;20267;-75
2024/01/29 08:25:15;;;;;;;11.93;10.73;;;;;;;1.45;100.00;101724.09;4922185;29;20180;-75
2024/01/29 08:27:40;;;;;;;12.63;11.30;;;;;;;1.50;100.00;101730.31;4925703;29;20222;-76
2024/01/29 08:30:06;;;;;;;14.13;11.00;;;;;;;1.49;100.00;101724.31;4929419;29;20210;-75
2024/01/29 08:32:31;;;;;;;11.80;10.60;;;;;;;1.55;100.00;101725.44;4930420;29;20199;-76
2024/01/29 08:34:57;;;;;;;11.73;10.53;;;;;;;1.59;100.00;101737.56;4926572;29;20803;-75
2024/01/29 08:37:22;;;;;;;13.73;11.77;;;;;;;1.66;100.00;101735.38;4928964;29;20195;-76
2024/01/29 08:39:48;;;;;;;13.13;11.53;;;;;;;1.70;100.00;101736.44;4927653;29;20226;-75
2024/01/29 08:42:15;;;;;;;13.17;11.17;;;;;;;1.72;100.00;101739.94;4928504;29;20658;-76
2024/01/29 08:44:40;;;;;;;13.40;10.97;;;;;;;1.74;100.00;101745.13;4929588;29;20203;-76
2024/01/29 08:47:05;;;;;;;12.30;10.97;;;;;;;1.80;100.00;101743.75;4928852;29;20206;-76
2024/01/29 08:49:30;;;;;;;14.20;10.97;;;;;;;1.94;100.00;101744.44;4928946;29;20234;-76
2024/01/29 08:51:56;;;;;;;11.27;9.73;;;;;;;2.05;100.00;101749.22;4930632;29;20187;-75
2024/01/29 08:54:21;;;;;;;10.97;9.33;;;;;;;2.16;100.00;101744.63;4926415;29;20195;-76
2024/01/29 08:56:48;;;;;;;8.87;8.00;;;;;;;2.26;100.00;101746.81;4930320;29;20330;-76
2024/01/29 08:59:15;;;;;;;10.17;8.37;;;;;;;2.35;100.00;101749.81;4928914;29;20222;-75
2024/01/29 09:01:40;;;;;;;8.20;7.43;;;;;;;2.48;100.00;101742.75;4925318;29;20191;-76
2024/01/29 09:04:06;;;;;;;9.80;7.57;;;;;;;2.60;100.00;101743.34;4922520;29;20214;-76
2024/01/29 09:06:31;;;;;;;8.33;6.57;;;;;;;2.66;100.00;101743.59;4927392;29;20199;-76
2024/01/29 09:08:56;;;;;;;11.13;6.53;;;;;;;2.74;100.00;101747.41;4909163;29;20215;-76
2024/01/29 09:11:22;;;;;;;7.37;6.67;;;;;;;2.85;100.00;101742.81;4928650;29;20278;-76
2024/01/29 09:13:47;;;;;;;8.00;7.30;;;;;;;2.94;100.00;101742.34;4927450;29;20183;-76
2024/01/29 09:16:12;;;;;;;7.90;7.10;;;;;;;3.01;100.00;101738.41;4909952;29;20188;-76
2024/01/29 09:18:37;;;;;;;9.97;8.07;;;;;;;3.09;100.00;101736.19;4922519;29;20278;-76
2024/01/29 09:21:03;;;;;;;9.47;6.70;;;;;;;3.17;100.00;101739.94;4925791;29;20250;-76
2024/01/29 09:23:31;;;;;;;7.33;6.53;;;;;;;3.25;100.00;101738.63;4924142;29;20223;-76
2024/01/29 09:25:56;;;;;;;8.83;7.23;;;;;;;3.35;100.00;101742.44;4924339;29;20760;-77
2024/01/29 09:28:21;;;;;;;10.53;7.27;;;;;;;3.42;100.00;101743.59;4923862;29;20291;-76
2024/01/29 09:30:47;;;;;;;8.20;6.93;;;;;;;3.52;100.00;101756.00;4926734;29;20208;-76
2024/01/29 09:33:12;;;;;;;7.87;6.70;;;;;;;3.64;100.00;101758.19;4927633;29;20580;-76
2024/01/29 09:35:37;;;;;;;7.97;7.17;;;;;;;3.74;100.00;101755.25;4924271;29;20282;-76
2024/01/29 09:38:03;;;;;;;7.60;6.80;;;;;;;3.85;100.00;101744.56;4925575;29;20185;-76
2024/01/29 09:40:28;;;;;;;9.27;8.27;;;;;;;3.93;100.00;101746.63;4923078;29;20302;-76
2024/01/29 09:42:54;;;;;;;8.90;7.97;;;;;;;4.02;100.00;101738.47;4927392;29;20253;-76
2024/01/29 09:45:23;;;;;;;15.77;14.37;;;;;;;4.11;100.00;101743.09;4928218;29;20227;-76
2024/01/29 09:47:51;;;;;;;13.50;12.30;;;;;;;4.16;100.00;101735.59;4926753;29;20716;-76
2024/01/29 09:50:18;;;;;;;13.10;11.90;;;;;;;4.20;100.00;101734.91;4926956;29;20246;-77
2024/01/29 09:52:45;;;;;;;10.13;9.23;;;;;;;4.24;100.00;101732.53;4928467;29;20710;-77
2024/01/29 09:55:11;;;;;;;8.80;8.00;;;;;;;4.25;100.00;101730.81;4923619;29;20197;-76
2024/01/29 09:57:37;;;;;;;7.60;6.90;;;;;;;4.25;100.00;101731.72;4922968;29;20278;-77
2024/01/29 10:00:04;;;;;;;8.10;7.20;;;;;;;4.25;100.00;101739.41;4921778;29;20213;-76
2024/01/29 10:02:34;;;;;;;7.53;6.37;;;;;;;4.23;100.00;101742.72;4924362;29;20201;-77
2024/01/29 10:04:59;;;;;;;8.27;7.47;;;;;;;4.20;100.00;101740.91;4919102;29;20210;-76
2024/01/29 10:07:25;;;;;;;9.40;7.77;;;;;;;4.15;100.00;101732.16;4925962;29;20218;-76
2024/01/29 10:09:51;;;;;;;9.40;8.47;;;;;;;4.11;100.00;101725.16;4923834;29;20218;-76
2024/01/29 10:12:22;;;;;;;9.13;8.23;;;;;;;4.11;100.00;101733.69;4928810;29;20609;-76
2024/01/29 10:14:47;;;;;;;10.67;8.57;;;;;;;4.15;100.00;101744.97;4926681;29;20674;-76
2024/01/29 10:17:12;;;;;;;10.00;8.50;;;;;;;4.18;100.00;101737.38;4926730;29;20198;-75
2024/01/29 10:19:38;;;;;;;10.20;9.10;;;;;;;4.24;100.00;101740.22;4927881;29;20243;-76
2024/01/29 10:22:10;;;;;;;10.40;8.97;;;;;;;4.36;100.00;101732.16;4921834;29;20203;-77
2024/01/29 10:24:36;;;;;;;11.20;10.10;;;;;;;4.48;100.00;101736.00;4923908;29;20314;-76
2024/01/29 10:27:06;;;;;;;10.77;9.67;;;;;;;4.59;100.00;101739.84;4929065;29;20205;-76
2024/01/29 10:29:31;;;;;;;10.73;9.13;;;;;;;4.69;100.00;101723.13;4937191;29;20204;-76
2024/01/29 10:31:59;;;;;;;8.70;7.90;;;;;;;4.80;100.00;101736.38;4937381;29;20203;-76
2024/01/29 10:34:24;;;;;;;11.17;9.93;;;;;;;4.89;100.00;101726.47;4926600;29;20235;-77
2024/01/29 10:36:51;;;;;;;9.13;8.10;;;;;;;4.92;100.00;101731.72;4906610;29;20857;-77
2024/01/29 10:39:20;;;;;;;8.93;8.13;;;;;;;4.99;100.00;101732.81;4923484;29;20232;-76
2024/01/29 10:41:51;;;;;;;8.60;7.77;;;;;;;5.04;100.00;101724.47;4925219;29;20296;-77
2024/01/29 10:44:20;;;;;;;8.93;8.13;;;;;;;5.14;100.00;101723.13;4917042;29;20231;-76
2024/01/29 10:46:47;;;;;;;9.60;8.70;;;;;;;5.19;100.00;101726.72;4926174;29;20191;-77
2024/01/29 10:49:12;;;;;;;9.13;8.33;;;;;;;5.22;100.00;101725.09;4925252;29;21087;-77
2024/01/29 10:51:40;;;;;;;10.23;9.00;;;;;;;5.26;100.00;101726.94;4904182;29;20192;-77
2024/01/29 10:54:07;;;;;;;9.80;8.90;;;;;;;5.31;100.00;101723.72;4920344;29;20203;-75
2024/01/29 10:56:32;;;;;;;11.17;9.80;;;;;;;5.39;100.00;101718.84;4920200;29;20192;-77
2024/01/29 10:58:59;;;;;;;10.23;8.83;;;;;;;5.46;100.00;101713.13;4935445;29;20308;-77
2024/01/29 11:01:25;;;;;;;10.87;8.80;;;;;;;5.56;100.00;101711.75;4926776;29;20701;-76
2024/01/29 11:03:51;;;;;;;11.90;10.10;;;;;;;5.64;100.00;101710.31;4927308;29;20222;-77
2024/01/29 11:06:38;;;;;;;13.57;10.90;;;;;;;5.74;100.00;101716.66;4918540;29;20926;-76
2024/01/29 11:09:09;;;;;;;16.00;10.80;;;;;;;5.80;100.00;101716.88;4925819;29;20288;-76